Time;durP1;ratioP1;P1;durP2;ratioP2;P2;SDS_P1;SDS_P2;PMS_P1;PMS_P2;Temp;Humidity;BMP_temperature;BMP_pressure;BME280_temperature;BME280_humidity;BME280_pressure;Samples;Min_cycle;Max_cycle;Signal;HPM_P1;HPM_P2
2021/12/31 00:02:20;;;;;;;3.10;0.80;;;17.00;99.90;;;;;;4981829;28;20594;-75
2021/12/31 00:04:46;;;;;;;1.40;0.70;;;17.00;99.90;;;;;;4998542;28;20586;-74
2021/12/31 00:07:11;;;;;;;4.17;0.80;;;17.00;99.90;;;;;;4997806;28;20566;-74
2021/12/31 00:09:38;;;;;;;2.50;0.90;;;17.10;99.90;;;;;;4998425;28;20251;-74
2021/12/31 00:12:05;;;;;;;1.87;0.80;;;17.00;99.90;;;;;;4980498;28;20264;-74
2021/12/31 00:14:31;;;;;;;2.83;0.70;;;17.00;99.90;;;;;;4980911;28;20582;-75
2021/12/31 00:16:57;;;;;;;1.83;0.80;;;17.10;99.90;;;;;;4998508;28;20636;-74
2021/12/31 00:19:25;;;;;;;1.20;0.70;;;17.10;99.90;;;;;;5000326;28;20570;-74
2021/12/31 00:21:51;;;;;;;1.70;0.80;;;17.10;99.90;;;;;;4999360;28;20624;-74
2021/12/31 00:24:17;;;;;;;3.10;0.80;;;17.10;99.90;;;;;;4998106;28;20577;-75
2021/12/31 00:26:43;;;;;;;2.20;0.80;;;17.10;99.90;;;;;;4996156;28;20570;-72
2021/12/31 00:29:09;;;;;;;1.47;0.80;;;17.10;99.90;;;;;;4995720;28;20516;-73
2021/12/31 00:31:34;;;;;;;1.70;0.60;;;17.10;99.90;;;;;;4978201;28;20214;-72
2021/12/31 00:34:00;;;;;;;1.50;0.80;;;17.10;99.90;;;;;;4995699;28;20182;-72
2021/12/31 00:36:45;;;;;;;1.90;0.70;;;17.10;99.90;;;;;;4995613;28;20265;-73
2021/12/31 00:39:14;;;;;;;2.70;0.90;;;17.10;99.90;;;;;;4994365;28;20265;-73
2021/12/31 00:41:40;;;;;;;2.40;0.90;;;17.10;99.90;;;;;;4995524;28;20942;-73
2021/12/31 00:44:05;;;;;;;1.53;0.80;;;17.10;99.90;;;;;;4995567;28;20566;-73
2021/12/31 00:46:32;;;;;;;3.63;0.80;;;17.10;99.90;;;;;;4995393;28;20582;-73
2021/12/31 00:48:58;;;;;;;2.70;1.00;;;17.10;99.90;;;;;;4995551;28;20167;-72
2021/12/31 00:51:25;;;;;;;1.97;0.90;;;17.10;99.90;;;;;;4995393;28;20971;-73
2021/12/31 00:53:51;;;;;;;1.63;0.70;;;17.10;99.90;;;;;;4995299;28;20609;-73
2021/12/31 00:56:17;;;;;;;2.67;1.13;;;17.10;99.90;;;;;;4995233;28;20570;-73
2021/12/31 00:58:43;;;;;;;1.47;0.60;;;17.10;99.90;;;;;;4977886;28;20562;-73
2021/12/31 01:01:16;;;;;;;1.73;0.80;;;17.10;99.90;;;;;;4995027;28;20175;-73
2021/12/31 01:03:42;;;;;;;1.30;0.70;;;17.10;99.90;;;;;;4977886;28;20194;-72
2021/12/31 01:06:07;;;;;;;2.00;0.70;;;17.10;99.90;;;;;;4995049;28;20673;-73
2021/12/31 01:08:33;;;;;;;1.23;0.67;;;17.10;99.90;;;;;;4995669;28;20246;-73
2021/12/31 01:10:59;;;;;;;2.60;0.70;;;17.10;99.90;;;;;;4977928;28;20727;-73
2021/12/31 01:13:33;;;;;;;2.23;0.70;;;17.10;99.90;;;;;;4977421;28;20205;-73
2021/12/31 01:16:01;;;;;;;1.70;0.60;;;17.10;99.90;;;;;;4995028;28;20177;-73
2021/12/31 01:19:44;;;;;;;1.50;0.80;;;17.10;99.90;;;;;;4993697;28;21064;-73
2021/12/31 01:21:13;;;;;;;1.87;1.10;;;17.10;99.90;;;;;;4977347;28;20578;-73
2021/12/31 01:23:38;;;;;;;1.17;0.60;;;17.10;99.90;;;;;;4994807;28;20577;-73
2021/12/31 01:26:04;;;;;;;2.20;0.70;;;17.10;99.90;;;;;;4993462;28;20673;-73
2021/12/31 01:28:30;;;;;;;2.03;0.70;;;17.10;99.90;;;;;;4961264;28;20222;-72
2021/12/31 01:30:55;;;;;;;1.70;0.90;;;17.10;99.90;;;;;;4994818;28;20175;-73
2021/12/31 01:33:21;;;;;;;2.27;0.70;;;17.10;99.90;;;;;;4994608;28;20191;-73
2021/12/31 01:35:47;;;;;;;1.23;0.60;;;17.10;99.90;;;;;;4994644;28;20170;-73
2021/12/31 01:38:13;;;;;;;1.40;0.70;;;17.10;99.90;;;;;;4993418;28;20249;-73
2021/12/31 01:40:39;;;;;;;1.60;0.80;;;17.10;99.90;;;;;;4977063;28;20533;-73
2021/12/31 01:43:04;;;;;;;1.40;0.70;;;17.10;99.90;;;;;;4994419;28;20191;-73
2021/12/31 01:45:33;;;;;;;2.03;1.00;;;17.10;99.90;;;;;;4994724;28;20621;-73
2021/12/31 01:48:07;;;;;;;1.80;0.70;;;17.10;99.90;;;;;;4994667;28;20214;-73
2021/12/31 01:50:33;;;;;;;1.23;0.70;;;17.10;99.90;;;;;;4994525;28;20562;-73
2021/12/31 01:53:00;;;;;;;1.20;0.60;;;17.10;99.90;;;;;;4994452;28;20667;-73
2021/12/31 01:55:32;;;;;;;3.80;1.33;;;17.10;99.90;;;;;;4994459;28;21112;-74
2021/12/31 01:57:58;;;;;;;1.60;0.90;;;17.10;99.90;;;;;;4994260;28;20655;-74
2021/12/31 02:00:24;;;;;;;1.30;0.60;;;17.10;99.90;;;;;;4994179;28;20573;-74
2021/12/31 02:02:52;;;;;;;2.80;0.70;;;17.10;99.90;;;;;;4994006;28;20583;-73
2021/12/31 02:05:21;;;;;;;1.87;0.60;;;17.10;99.90;;;;;;4994068;28;20586;-73
2021/12/31 02:07:47;;;;;;;1.43;0.70;;;17.10;99.90;;;;;;4994018;28;20992;-73
2021/12/31 02:10:12;;;;;;;3.53;0.80;;;17.10;99.90;;;;;;4976476;28;20677;-73
2021/12/31 02:12:46;;;;;;;1.20;0.60;;;17.10;99.90;;;;;;4993736;28;20302;-73
2021/12/31 02:15:16;;;;;;;2.00;0.70;;;17.10;99.90;;;;;;4993929;28;20186;-73
2021/12/31 02:17:44;;;;;;;1.37;0.60;;;17.10;99.90;;;;;;4992636;28;20625;-73
2021/12/31 02:20:11;;;;;;;1.50;0.70;;;17.10;99.90;;;;;;4994376;28;20566;-73
2021/12/31 02:22:39;;;;;;;1.60;0.60;;;17.10;99.90;;;;;;4993719;28;21192;-73
2021/12/31 02:25:06;;;;;;;1.37;0.60;;;17.10;99.90;;;;;;4976964;28;20574;-73
2021/12/31 02:27:38;;;;;;;1.60;0.70;;;17.10;99.90;;;;;;4976669;28;20586;-77
2021/12/31 02:30:06;;;;;;;1.80;0.70;;;17.10;99.90;;;;;;4993822;28;20601;-77
2021/12/31 02:32:31;;;;;;;2.30;0.60;;;17.10;99.90;;;;;;4993438;28;20610;-77
2021/12/31 02:34:57;;;;;;;1.67;0.87;;;17.00;99.90;;;;;;4994235;28;20938;-77
2021/12/31 02:37:23;;;;;;;1.67;0.60;;;17.10;99.90;;;;;;4994709;28;20258;-77
2021/12/31 02:39:49;;;;;;;1.83;0.60;;;17.10;99.90;;;;;;4979908;28;20955;-77
2021/12/31 02:42:15;;;;;;;1.40;0.63;;;17.10;99.90;;;;;;4994454;28;20684;-77
2021/12/31 02:44:42;;;;;;;2.23;0.60;;;17.10;99.90;;;;;;4993456;28;20171;-77
2021/12/31 02:47:08;;;;;;;1.37;0.63;;;17.10;99.90;;;;;;4994014;28;20179;-77
2021/12/31 02:49:39;;;;;;;1.30;0.70;;;17.10;99.90;;;;;;4994038;28;20565;-78
2021/12/31 02:52:06;;;;;;;2.17;0.70;;;17.10;99.90;;;;;;4976442;28;20602;-78
2021/12/31 02:54:34;;;;;;;1.93;0.60;;;17.10;99.90;;;;;;4994401;28;20606;-78
2021/12/31 02:57:00;;;;;;;1.70;0.63;;;17.10;99.90;;;;;;4994260;28;21256;-77
2021/12/31 02:59:27;;;;;;;2.53;0.70;;;17.10;99.90;;;;;;4992521;28;20574;-78
2021/12/31 03:01:54;;;;;;;2.53;0.70;;;17.10;99.90;;;;;;4993576;28;21007;-78
2021/12/31 03:04:22;;;;;;;1.30;0.70;;;17.10;99.90;;;;;;4993291;28;21100;-78
2021/12/31 03:06:49;;;;;;;2.13;0.73;;;17.10;99.90;;;;;;4997102;28;20585;-77
2021/12/31 03:09:18;;;;;;;1.50;0.70;;;17.10;99.90;;;;;;4980594;28;20571;-78
2021/12/31 03:11:45;;;;;;;2.23;0.70;;;17.10;99.90;;;;;;5000436;28;20628;-78
2021/12/31 03:14:12;;;;;;;1.70;0.60;;;17.10;99.90;;;;;;4995144;28;20566;-77
2021/12/31 03:16:38;;;;;;;1.10;0.50;;;17.10;99.90;;;;;;4995915;28;20717;-77
2021/12/31 03:19:04;;;;;;;1.80;0.70;;;17.10;99.90;;;;;;4994235;28;21031;-77
2021/12/31 03:21:30;;;;;;;2.80;0.70;;;17.10;99.90;;;;;;4975385;28;20645;-77
2021/12/31 03:23:58;;;;;;;1.30;0.60;;;17.10;99.90;;;;;;4958942;28;20668;-77
2021/12/31 03:26:24;;;;;;;1.63;0.60;;;17.10;99.90;;;;;;4991420;28;20593;-78
2021/12/31 03:28:50;;;;;;;2.30;1.17;;;17.10;99.90;;;;;;4992739;28;21110;-78
2021/12/31 03:31:16;;;;;;;1.70;0.67;;;17.10;99.90;;;;;;4992515;28;21158;-78
2021/12/31 03:33:42;;;;;;;1.40;0.70;;;17.10;99.90;;;;;;4974446;28;20641;-77
2021/12/31 03:36:07;;;;;;;3.20;0.60;;;17.00;99.90;;;;;;4974806;28;20930;-78
2021/12/31 03:38:33;;;;;;;1.83;0.77;;;17.00;99.90;;;;;;4992335;28;20226;-77
2021/12/31 03:40:59;;;;;;;3.40;0.60;;;17.00;99.90;;;;;;4992505;28;20167;-77
2021/12/31 03:43:24;;;;;;;1.10;0.53;;;17.10;99.90;;;;;;4990787;28;20274;-77
2021/12/31 03:45:51;;;;;;;1.40;0.60;;;17.10;99.90;;;;;;4992282;28;20639;-77
2021/12/31 03:48:21;;;;;;;1.70;0.60;;;17.10;99.90;;;;;;4992544;28;20175;-77
2021/12/31 03:50:47;;;;;;;2.30;0.83;;;17.00;99.90;;;;;;4992187;28;20567;-78
2021/12/31 03:53:15;;;;;;;1.90;0.63;;;17.10;99.90;;;;;;4991800;28;21130;-78
2021/12/31 03:55:42;;;;;;;1.50;0.53;;;17.10;99.90;;;;;;4992456;28;20992;-77
2021/12/31 03:58:08;;;;;;;2.07;0.70;;;17.00;99.90;;;;;;4992166;28;20681;-77
2021/12/31 04:00:34;;;;;;;2.00;0.70;;;17.00;99.90;;;;;;4992180;28;20571;-77
2021/12/31 04:03:10;;;;;;;1.90;0.60;;;17.00;99.90;;;;;;4990724;28;20195;-78
2021/12/31 04:05:41;;;;;;;1.43;0.70;;;17.10;99.90;;;;;;4992355;28;20569;-78
2021/12/31 04:08:09;;;;;;;3.03;0.90;;;17.10;99.90;;;;;;4992267;28;20601;-78
2021/12/31 04:10:35;;;;;;;1.03;0.50;;;17.10;99.90;;;;;;4992173;28;20979;-78
2021/12/31 04:13:01;;;;;;;2.53;0.60;;;17.00;99.90;;;;;;4974309;28;20983;-78
2021/12/31 04:15:26;;;;;;;2.13;0.80;;;17.00;99.90;;;;;;4974709;28;20571;-78
2021/12/31 04:17:52;;;;;;;1.40;0.70;;;17.00;99.90;;;;;;4991999;28;20191;-78
2021/12/31 04:20:32;;;;;;;2.00;0.60;;;17.00;99.90;;;;;;4992086;28;20655;-78
2021/12/31 04:23:01;;;;;;;1.30;0.60;;;17.00;99.90;;;;;;4974455;28;20183;-78
2021/12/31 04:25:27;;;;;;;2.00;0.70;;;16.90;99.90;;;;;;4991806;28;20562;-77
2021/12/31 04:27:53;;;;;;;2.10;0.60;;;16.90;99.90;;;;;;4991864;28;21269;-77
2021/12/31 04:30:19;;;;;;;1.50;0.67;;;16.80;99.90;;;;;;4992039;28;20198;-77
2021/12/31 04:32:45;;;;;;;2.43;1.37;;;16.80;99.90;;;;;;4991662;28;20195;-77
2021/12/31 04:35:11;;;;;;;2.17;0.60;;;16.70;99.90;;;;;;4991726;28;20590;-77
2021/12/31 04:37:42;;;;;;;1.60;0.70;;;16.70;99.90;;;;;;4992005;28;20249;-78
2021/12/31 04:40:12;;;;;;;2.27;0.80;;;16.60;99.90;;;;;;4991972;28;20613;-78
2021/12/31 04:42:41;;;;;;;1.27;0.77;;;16.60;99.90;;;;;;4991889;28;20641;-78
2021/12/31 04:45:09;;;;;;;1.53;0.63;;;16.50;99.90;;;;;;4991657;28;20566;-77
2021/12/31 04:47:35;;;;;;;1.80;0.80;;;16.50;99.90;;;;;;4995387;28;20971;-77
2021/12/31 04:50:01;;;;;;;1.60;0.70;;;16.50;99.90;;;;;;4994158;28;20589;-78
2021/12/31 04:52:27;;;;;;;1.40;0.73;;;16.40;99.90;;;;;;4994114;28;21197;-78
2021/12/31 04:54:53;;;;;;;1.80;0.57;;;16.40;99.90;;;;;;4995104;28;20171;-78
2021/12/31 04:57:20;;;;;;;1.40;0.70;;;16.40;99.90;;;;;;4995403;28;20701;-78
2021/12/31 04:59:46;;;;;;;2.20;0.70;;;16.40;99.90;;;;;;4995854;28;20193;-77
2021/12/31 05:02:12;;;;;;;1.20;0.60;;;16.40;99.90;;;;;;4995186;28;21120;-77
2021/12/31 05:04:37;;;;;;;1.20;0.67;;;16.40;99.90;;;;;;4995195;28;20171;-77
2021/12/31 05:07:03;;;;;;;1.20;0.60;;;16.40;99.90;;;;;;4994051;28;20179;-77
2021/12/31 05:09:29;;;;;;;3.20;0.80;;;16.40;99.90;;;;;;4995353;28;20302;-77
2021/12/31 05:11:55;;;;;;;1.33;0.60;;;16.40;99.90;;;;;;5021338;23;20650;-80
2021/12/31 05:14:21;;;;;;;1.40;0.57;;;16.40;99.90;;;;;;4993021;28;20171;-80
2021/12/31 05:16:47;;;;;;;2.10;0.80;;;16.40;99.90;;;;;;4994683;28;20209;-81
2021/12/31 05:19:13;;;;;;;1.30;0.60;;;16.40;99.90;;;;;;4994950;28;20562;-81
2021/12/31 05:21:39;;;;;;;1.60;0.80;;;16.40;99.90;;;;;;4977336;28;20570;-81
2021/12/31 05:24:05;;;;;;;1.60;0.60;;;16.40;99.90;;;;;;4994668;28;20570;-81
2021/12/31 05:26:30;;;;;;;1.70;0.80;;;16.30;99.90;;;;;;4994942;28;20175;-81
2021/12/31 05:28:56;;;;;;;1.60;0.73;;;16.30;99.90;;;;;;4977514;28;21005;-81
2021/12/31 05:31:22;;;;;;;2.13;0.60;;;16.30;99.90;;;;;;4994683;28;20198;-81
2021/12/31 05:33:48;;;;;;;2.53;0.60;;;16.30;99.90;;;;;;4976665;28;20195;-81
2021/12/31 05:36:15;;;;;;;1.40;0.60;;;16.30;99.90;;;;;;4994517;28;20185;-81
2021/12/31 05:38:41;;;;;;;1.30;0.60;;;16.30;99.90;;;;;;4977140;28;20167;-81
2021/12/31 05:41:06;;;;;;;1.57;0.60;;;16.30;99.90;;;;;;4994527;28;20580;-81
2021/12/31 05:43:32;;;;;;;1.97;0.70;;;16.30;99.90;;;;;;4993956;28;20554;-81
2021/12/31 05:45:58;;;;;;;1.33;0.80;;;16.30;99.90;;;;;;4993580;28;20578;-81
2021/12/31 05:48:24;;;;;;;1.87;0.73;;;16.20;99.90;;;;;;4994453;28;20578;-82
2021/12/31 05:50:50;;;;;;;1.50;0.70;;;16.20;99.90;;;;;;4994272;28;20177;-82
2021/12/31 05:53:16;;;;;;;1.30;0.63;;;16.20;99.90;;;;;;4993865;28;20598;-81
2021/12/31 05:55:42;;;;;;;1.77;1.00;;;16.20;99.90;;;;;;4994080;28;21179;-81
2021/12/31 05:58:07;;;;;;;1.50;0.80;;;16.20;99.90;;;;;;4993420;28;20674;-81
2021/12/31 06:00:33;;;;;;;1.30;0.67;;;16.20;99.90;;;;;;4976712;28;20163;-80
2021/12/31 06:02:59;;;;;;;1.67;0.80;;;16.20;99.90;;;;;;4976073;28;20357;-81
2021/12/31 06:05:27;;;;;;;1.97;0.90;;;16.20;99.90;;;;;;4994065;28;20174;-81
2021/12/31 06:07:57;;;;;;;1.30;0.70;;;16.20;99.90;;;;;;4994054;28;20183;-81
2021/12/31 06:10:24;;;;;;;1.60;0.80;;;16.20;99.90;;;;;;4994067;28;20569;-81
2021/12/31 06:12:53;;;;;;;2.33;0.73;;;16.20;99.90;;;;;;4993309;28;20661;-80
2021/12/31 06:15:20;;;;;;;2.80;0.70;;;16.20;99.90;;;;;;4994062;28;20916;-81
2021/12/31 06:17:46;;;;;;;1.20;0.70;;;16.20;99.90;;;;;;4992257;28;20709;-82
2021/12/31 06:20:12;;;;;;;2.70;1.40;;;16.20;99.90;;;;;;4993763;28;20662;-81
2021/12/31 06:22:37;;;;;;;1.50;0.70;;;16.20;99.90;;;;;;4993716;28;20573;-81
2021/12/31 06:25:04;;;;;;;1.77;0.80;;;16.20;99.90;;;;;;4993466;28;20657;-81
2021/12/31 06:27:30;;;;;;;2.87;0.73;;;16.30;99.90;;;;;;4992468;28;20798;-80
2021/12/31 06:29:56;;;;;;;2.00;0.70;;;16.30;99.90;;;;;;4976248;28;20960;-81
2021/12/31 06:32:22;;;;;;;1.50;0.80;;;16.30;99.90;;;;;;4993396;28;20697;-81
2021/12/31 06:34:48;;;;;;;2.80;0.80;;;16.30;99.90;;;;;;4975838;28;20187;-80
2021/12/31 06:37:14;;;;;;;1.47;0.70;;;16.30;99.90;;;;;;4993378;28;20562;-81
2021/12/31 06:39:42;;;;;;;1.83;0.73;;;16.30;99.90;;;;;;4975879;28;20584;-80
2021/12/31 06:42:08;;;;;;;1.57;0.67;;;16.30;99.90;;;;;;4993264;28;20198;-80
2021/12/31 06:44:38;;;;;;;1.47;1.10;;;16.30;99.90;;;;;;4993087;28;20602;-81
2021/12/31 06:47:08;;;;;;;2.33;0.87;;;16.20;99.90;;;;;;5005529;28;20577;-80
2021/12/31 06:49:34;;;;;;;2.47;0.80;;;16.20;99.90;;;;;;4994716;28;20585;-80
2021/12/31 06:51:59;;;;;;;2.00;0.70;;;16.20;99.90;;;;;;5012272;28;20592;-80
2021/12/31 06:54:25;;;;;;;1.57;0.70;;;16.10;99.90;;;;;;5012138;28;20944;-80
2021/12/31 06:56:51;;;;;;;1.53;0.70;;;16.00;99.90;;;;;;4995020;28;20647;-80
2021/12/31 06:59:17;;;;;;;1.17;0.60;;;16.00;99.90;;;;;;5012065;28;20221;-80
2021/12/31 07:01:42;;;;;;;1.60;0.80;;;15.90;99.90;;;;;;5012158;28;20174;-80
2021/12/31 07:04:10;;;;;;;1.87;0.70;;;15.80;99.90;;;;;;5011171;28;20236;-80
2021/12/31 07:06:35;;;;;;;1.20;0.77;;;15.80;99.90;;;;;;5012637;28;20174;-80
2021/12/31 07:09:01;;;;;;;1.57;0.70;;;15.70;99.90;;;;;;4994195;28;20577;-79
2021/12/31 07:11:26;;;;;;;1.70;0.60;;;15.60;99.90;;;;;;5012046;28;20256;-80
2021/12/31 07:13:52;;;;;;;1.83;0.70;;;15.50;99.90;;;;;;5012172;28;20178;-79
2021/12/31 07:16:18;;;;;;;1.53;0.83;;;15.50;99.90;;;;;;4994899;28;20198;-80
2021/12/31 07:18:44;;;;;;;2.20;0.70;;;15.40;99.90;;;;;;5012411;28;20182;-80
2021/12/31 07:21:10;;;;;;;3.20;0.80;;;15.30;99.90;;;;;;5013650;28;20190;-80
2021/12/31 07:23:36;;;;;;;4.50;0.80;;;15.30;99.90;;;;;;5012025;28;21241;-79
2021/12/31 07:26:01;;;;;;;1.47;0.80;;;15.20;99.90;;;;;;5012171;28;20562;-80
2021/12/31 07:28:28;;;;;;;1.20;0.70;;;15.10;99.90;;;;;;5012262;28;20525;-80
2021/12/31 07:30:54;;;;;;;1.30;0.70;;;15.10;99.90;;;;;;5012071;28;20174;-80
2021/12/31 07:33:22;;;;;;;1.80;0.77;;;15.10;99.90;;;;;;4994194;28;20958;-80
2021/12/31 07:35:50;;;;;;;1.97;0.80;;;15.00;99.90;;;;;;4994463;28;20664;-80
2021/12/31 07:38:37;;;;;;;1.73;0.70;;;15.00;99.90;;;;;;5012000;28;20609;-80
2021/12/31 07:41:04;;;;;;;1.43;0.80;;;14.90;99.90;;;;;;5010803;28;20573;-80
2021/12/31 07:43:30;;;;;;;3.07;1.10;;;14.90;99.90;;;;;;4993672;28;20651;-79
2021/12/31 07:45:57;;;;;;;1.60;0.77;;;14.90;99.90;;;;;;5011798;28;20565;-79
2021/12/31 07:48:23;;;;;;;2.17;0.90;;;14.90;99.90;;;;;;4993949;28;20565;-79
2021/12/31 07:50:50;;;;;;;2.93;0.90;;;14.80;99.90;;;;;;4993736;28;20581;-80
2021/12/31 07:53:17;;;;;;;1.40;0.80;;;14.80;99.90;;;;;;5010940;28;20608;-79
2021/12/31 07:55:43;;;;;;;1.40;0.90;;;14.80;99.90;;;;;;4994003;28;20613;-79
2021/12/31 07:58:09;;;;;;;2.47;0.83;;;14.80;99.90;;;;;;4993933;28;20648;-80
2021/12/31 08:00:36;;;;;;;1.30;0.73;;;14.80;99.90;;;;;;5011702;28;20597;-80
2021/12/31 08:03:03;;;;;;;1.80;0.80;;;14.90;99.90;;;;;;5011121;28;20190;-80
2021/12/31 08:05:30;;;;;;;1.97;1.17;;;14.90;99.90;;;;;;5011988;28;20656;-80
2021/12/31 08:07:55;;;;;;;3.30;1.00;;;14.90;99.90;;;;;;4993926;28;20910;-80
2021/12/31 08:10:21;;;;;;;1.77;0.70;;;14.90;99.90;;;;;;4977805;28;20577;-80
2021/12/31 08:12:48;;;;;;;1.57;0.80;;;14.90;99.90;;;;;;5011246;28;20700;-79
2021/12/31 08:15:14;;;;;;;1.70;0.97;;;14.90;99.90;;;;;;5011723;28;20569;-80
2021/12/31 08:17:39;;;;;;;1.57;0.80;;;15.00;99.90;;;;;;5010193;28;21208;-80
2021/12/31 08:20:06;;;;;;;2.80;0.80;;;15.00;99.90;;;;;;5011547;28;20628;-80
2021/12/31 08:22:32;;;;;;;2.03;0.87;;;15.00;99.90;;;;;;4998144;28;20190;-80
2021/12/31 08:24:58;;;;;;;2.80;0.80;;;15.10;99.90;;;;;;5015169;28;20577;-80
2021/12/31 08:27:23;;;;;;;1.67;0.70;;;15.10;99.90;;;;;;5014851;28;20205;-80
2021/12/31 08:29:49;;;;;;;1.40;0.80;;;15.10;99.90;;;;;;5015361;28;20193;-80
2021/12/31 08:32:15;;;;;;;2.03;0.90;;;15.20;99.90;;;;;;4981711;28;20678;-82
2021/12/31 08:34:41;;;;;;;1.83;0.70;;;15.20;99.90;;;;;;4997898;28;20171;-80
2021/12/31 08:37:07;;;;;;;5.83;0.70;;;15.30;99.90;;;;;;5015266;28;20605;-80
2021/12/31 08:39:33;;;;;;;1.20;0.70;;;15.30;99.90;;;;;;5015356;28;20601;-80
2021/12/31 08:42:00;;;;;;;2.20;0.87;;;15.40;99.90;;;;;;5014384;28;20612;-81
2021/12/31 08:44:27;;;;;;;1.43;0.90;;;15.40;99.90;;;;;;4997218;28;20608;-81
2021/12/31 08:46:53;;;;;;;2.73;0.70;;;15.40;99.90;;;;;;5014804;28;20568;-81
2021/12/31 08:49:20;;;;;;;1.77;0.60;;;15.40;99.90;;;;;;4981177;28;20569;-81
2021/12/31 08:51:47;;;;;;;1.50;0.60;;;15.50;99.90;;;;;;5014282;28;20576;-81
2021/12/31 08:54:13;;;;;;;2.67;1.00;;;15.50;99.90;;;;;;5014566;28;20597;-79
2021/12/31 08:56:39;;;;;;;2.03;0.60;;;15.50;99.90;;;;;;4997291;28;20640;-79
2021/12/31 08:59:05;;;;;;;4.20;0.80;;;15.60;99.90;;;;;;4980491;28;21004;-79
2021/12/31 09:01:31;;;;;;;1.87;0.70;;;15.60;99.90;;;;;;4996322;28;20673;-79
2021/12/31 09:03:57;;;;;;;1.97;0.80;;;15.60;99.90;;;;;;5014631;28;20221;-79
2021/12/31 09:06:23;;;;;;;1.40;0.70;;;15.60;99.90;;;;;;5014337;28;20568;-79
2021/12/31 09:08:48;;;;;;;1.57;0.77;;;15.60;99.90;;;;;;5014699;28;20201;-79
2021/12/31 09:11:15;;;;;;;2.07;0.70;;;15.70;99.90;;;;;;5013322;28;20205;-79
2021/12/31 09:13:42;;;;;;;1.97;0.70;;;15.70;99.90;;;;;;4996542;28;20604;-79
2021/12/31 09:16:09;;;;;;;1.10;0.50;;;15.80;99.90;;;;;;4996958;28;20639;-79
2021/12/31 09:18:35;;;;;;;1.53;0.63;;;15.80;99.90;;;;;;5014685;28;20613;-79
2021/12/31 09:21:01;;;;;;;3.10;0.60;;;15.80;99.90;;;;;;4981822;28;20569;-80
2021/12/31 09:23:27;;;;;;;1.33;0.60;;;15.80;99.90;;;;;;4996390;28;20962;-80
2021/12/31 09:25:54;;;;;;;1.37;0.80;;;15.90;99.90;;;;;;5013963;28;20668;-79
2021/12/31 09:28:20;;;;;;;1.93;0.77;;;15.90;99.90;;;;;;5014051;28;20174;-80
2021/12/31 09:30:46;;;;;;;1.40;0.70;;;15.90;99.90;;;;;;4996415;28;20581;-79
2021/12/31 09:33:11;;;;;;;1.20;0.70;;;15.90;99.90;;;;;;5012219;28;20194;-80
2021/12/31 09:35:39;;;;;;;1.53;0.70;;;16.00;99.90;;;;;;4996375;28;20179;-79
2021/12/31 09:38:08;;;;;;;1.40;0.70;;;16.00;99.90;;;;;;5014002;28;20206;-80
2021/12/31 09:40:39;;;;;;;1.30;0.67;;;16.00;99.90;;;;;;5012869;28;20577;-80
2021/12/31 09:43:08;;;;;;;2.83;0.80;;;15.90;99.90;;;;;;5013163;28;21160;-80
2021/12/31 09:45:42;;;;;;;3.20;1.00;;;15.90;99.90;;;;;;4996468;28;20565;-80
2021/12/31 09:48:11;;;;;;;3.20;0.80;;;15.90;99.90;;;;;;4996388;28;20565;-79
2021/12/31 09:50:39;;;;;;;1.33;0.60;;;15.90;99.90;;;;;;4996091;28;20580;-79
2021/12/31 09:53:06;;;;;;;1.70;0.87;;;16.00;99.90;;;;;;5013355;28;20597;-79
2021/12/31 09:55:52;;;;;;;1.83;0.70;;;16.00;99.90;;;;;;5012488;28;20568;-79
2021/12/31 09:58:23;;;;;;;2.00;0.63;;;16.00;99.90;;;;;;5013523;28;20831;-79
2021/12/31 10:00:52;;;;;;;2.57;0.80;;;16.00;99.90;;;;;;5013719;28;20566;-79
2021/12/31 10:03:27;;;;;;;5.00;1.63;;;16.00;99.90;;;;;;4979321;28;20681;-79
2021/12/31 10:05:56;;;;;;;1.77;0.70;;;16.00;99.90;;;;;;4996033;28;20567;-79
2021/12/31 10:08:26;;;;;;;1.23;0.80;;;16.00;99.90;;;;;;4996214;28;20601;-79
2021/12/31 10:11:09;;;;;;;1.73;0.70;;;16.00;99.90;;;;;;4995925;28;20604;-79
2021/12/31 10:13:51;;;;;;;2.17;0.70;;;16.00;99.90;;;;;;5012878;28;20621;-79
2021/12/31 10:16:36;;;;;;;2.00;0.90;;;16.00;99.90;;;;;;4995930;28;21116;-78
2021/12/31 10:19:10;;;;;;;1.30;0.73;;;16.10;99.90;;;;;;4995740;28;20619;-79
2021/12/31 10:21:43;;;;;;;1.20;0.70;;;16.10;99.90;;;;;;5013099;28;20561;-79
2021/12/31 10:24:25;;;;;;;1.13;0.60;;;16.10;99.90;;;;;;5012611;28;20554;-79
2021/12/31 10:26:53;;;;;;;1.80;0.80;;;16.10;99.90;;;;;;5013024;28;20572;-79
2021/12/31 10:29:19;;;;;;;1.30;0.70;;;16.20;99.90;;;;;;5012888;28;20565;-79
2021/12/31 10:31:47;;;;;;;2.73;0.80;;;16.30;99.90;;;;;;5012801;28;21129;-79
2021/12/31 10:34:36;;;;;;;2.13;0.63;;;16.30;99.90;;;;;;5012653;28;20269;-79
2021/12/31 10:37:14;;;;;;;2.03;0.80;;;16.40;99.90;;;;;;5012826;28;20616;-79
2021/12/31 10:39:41;;;;;;;2.17;0.70;;;16.50;99.90;;;;;;4995361;28;20577;-78
2021/12/31 10:42:08;;;;;;;1.80;0.80;;;16.60;99.90;;;;;;4995384;28;20594;-79
2021/12/31 10:44:52;;;;;;;2.37;0.70;;;16.70;99.90;;;;;;4995246;28;20676;-79
2021/12/31 10:47:37;;;;;;;2.13;0.80;;;16.80;99.90;;;;;;4995302;28;20573;-79
2021/12/31 10:50:03;;;;;;;1.57;0.70;;;16.90;99.90;;;;;;5011454;28;20672;-79
2021/12/31 10:52:39;;;;;;;1.70;0.70;;;17.00;99.90;;;;;;5012629;28;20705;-79
2021/12/31 10:55:23;;;;;;;1.83;0.70;;;17.10;99.90;;;;;;4994050;28;20729;-79
2021/12/31 10:57:51;;;;;;;1.30;0.60;;;17.20;99.90;;;;;;5012456;28;20675;-79
2021/12/31 11:00:19;;;;;;;1.60;0.70;;;17.30;99.90;;;;;;5012437;28;20576;-79
2021/12/31 11:02:46;;;;;;;2.27;0.80;;;17.40;99.90;;;;;;5012347;28;20996;-79
2021/12/31 11:05:14;;;;;;;1.50;0.70;;;17.50;99.90;;;;;;4994568;28;20558;-79
2021/12/31 11:07:41;;;;;;;1.13;0.70;;;17.50;99.90;;;;;;4994868;28;20574;-79
2021/12/31 11:10:08;;;;;;;1.20;0.60;;;17.50;99.90;;;;;;5012546;28;20664;-79
2021/12/31 11:12:34;;;;;;;1.40;0.60;;;17.50;99.90;;;;;;5012049;28;20623;-79
2021/12/31 11:15:01;;;;;;;1.30;0.70;;;17.50;99.90;;;;;;5012209;28;20932;-78
2021/12/31 11:17:27;;;;;;;2.20;0.70;;;17.60;99.90;;;;;;4994625;28;20620;-79
2021/12/31 11:19:54;;;;;;;1.40;0.70;;;17.60;99.90;;;;;;5012483;28;20918;-79
2021/12/31 11:22:26;;;;;;;1.33;0.77;;;17.60;99.90;;;;;;4979662;28;21187;-79
2021/12/31 11:24:52;;;;;;;2.77;1.10;;;17.60;99.90;;;;;;5012119;28;20605;-79
2021/12/31 11:27:37;;;;;;;1.30;1.03;;;17.60;99.90;;;;;;5012245;28;20590;-79
2021/12/31 11:30:04;;;;;;;1.40;0.67;;;17.60;99.90;;;;;;4994913;28;20619;-79
2021/12/31 11:32:48;;;;;;;1.73;0.80;;;17.50;99.90;;;;;;5012134;28;20597;-79
2021/12/31 11:35:30;;;;;;;1.67;0.80;;;17.40;99.90;;;;;;4994684;28;20573;-79
2021/12/31 11:37:56;;;;;;;1.90;0.80;;;17.40;99.90;;;;;;5011870;28;20940;-79
2021/12/31 11:40:32;;;;;;;1.80;0.80;;;17.40;99.90;;;;;;5011849;28;20625;-78
2021/12/31 11:43:25;;;;;;;1.50;0.77;;;17.40;99.90;;;;;;5011559;28;20552;-79
2021/12/31 11:46:09;;;;;;;2.17;0.90;;;17.40;99.90;;;;;;5011872;28;20577;-79
2021/12/31 11:48:44;;;;;;;2.70;0.80;;;17.40;99.90;;;;;;5010511;28;21203;-79
2021/12/31 11:51:11;;;;;;;2.33;0.70;;;17.40;99.90;;;;;;4994301;28;20933;-79
2021/12/31 11:53:55;;;;;;;1.40;0.73;;;17.40;99.90;;;;;;4993992;28;20812;-80
2021/12/31 11:56:36;;;;;;;1.70;0.90;;;17.30;99.90;;;;;;4998807;28;20553;-79
2021/12/31 11:59:08;;;;;;;1.90;1.00;;;17.30;99.90;;;;;;5018235;28;20592;-79
2021/12/31 12:01:36;;;;;;;1.50;1.00;;;17.30;99.90;;;;;;5018274;28;20553;-79
2021/12/31 12:04:27;;;;;;;2.00;1.10;;;17.30;99.90;;;;;;5018163;28;20699;-79
2021/12/31 12:07:06;;;;;;;2.30;0.80;;;17.30;99.90;;;;;;5018326;28;20565;-79
2021/12/31 12:09:41;;;;;;;1.30;0.73;;;17.30;99.90;;;;;;5018184;28;20659;-79
2021/12/31 12:12:15;;;;;;;1.70;0.90;;;17.40;99.90;;;;;;5000359;28;20614;-79
2021/12/31 12:14:47;;;;;;;2.17;0.90;;;17.50;99.90;;;;;;5000322;28;20588;-78
2021/12/31 12:17:17;;;;;;;2.27;0.70;;;17.50;99.90;;;;;;5018096;28;20612;-78
2021/12/31 12:19:46;;;;;;;1.47;0.80;;;17.50;99.90;;;;;;5016894;28;20960;-78
2021/12/31 12:22:27;;;;;;;2.07;1.10;;;17.60;99.90;;;;;;5000410;28;21164;-79
2021/12/31 12:24:56;;;;;;;1.60;0.93;;;17.60;99.90;;;;;;5000406;28;20657;-78
2021/12/31 12:27:23;;;;;;;3.53;0.90;;;17.60;99.90;;;;;;5016674;28;20608;-78
2021/12/31 12:29:51;;;;;;;1.23;0.80;;;17.70;99.90;;;;;;5001291;28;20569;-78
2021/12/31 12:32:28;;;;;;;1.60;1.00;;;17.70;99.90;;;;;;5018292;28;20620;-78
2021/12/31 12:34:54;;;;;;;1.60;0.90;;;17.70;99.90;;;;;;5001342;28;20581;-79
2021/12/31 12:37:29;;;;;;;3.27;1.07;;;17.70;99.90;;;;;;5000541;28;20635;-78
2021/12/31 12:40:00;;;;;;;1.90;1.30;;;17.80;99.90;;;;;;5000349;28;20577;-78
2021/12/31 12:42:27;;;;;;;2.33;0.80;;;17.80;99.90;;;;;;5016302;28;21025;-79
2021/12/31 12:45:01;;;;;;;1.60;1.10;;;17.90;99.90;;;;;;5017598;28;20561;-79
2021/12/31 12:47:26;;;;;;;1.40;0.87;;;17.80;99.90;;;;;;5000200;28;20938;-79
2021/12/31 12:49:57;;;;;;;1.50;1.00;;;17.90;99.90;;;;;;5017774;28;20580;-79
2021/12/31 12:52:22;;;;;;;1.77;1.00;;;17.90;99.90;;;;;;5017538;28;20691;-79
2021/12/31 12:54:49;;;;;;;2.20;0.83;;;17.90;99.90;;;;;;4983403;28;21198;-79